sensor_id;sensor_type;location;lat;lon;timestamp;temperature;humidity
17033;DHT22;63208;52.178;21.016;2023-08-21T00:01:44;24.60;99.90
17033;DHT22;63208;52.178;21.016;2023-08-21T00:04:11;24.50;99.90
17033;DHT22;63208;52.178;21.016;2023-08-21T00:06:38;24.50;99.90
17033;DHT22;63208;52.178;21.016;2023-08-21T00:09:04;24.50;99.90
17033;DHT22;63208;52.178;21.016;2023-08-21T00:11:31;24.40;99.90
17033;DHT22;63208;52.178;21.016;2023-08-21T00:13:58;24.30;99.90
17033;DHT22;63208;52.178;21.016;2023-08-21T00:16:26;24.20;99.90
17033;DHT22;63208;52.178;21.016;2023-08-21T00:18:53;24.20;99.90
17033;DHT22;63208;52.178;21.016;2023-08-21T00:21:20;24.10;99.90
17033;DHT22;63208;52.178;21.016;2023-08-21T00:23:47;24.00;99.90
17033;DHT22;63208;52.178;21.016;2023-08-21T00:26:14;23.90;99.90
17033;DHT22;63208;52.178;21.016;2023-08-21T00:28:40;23.90;99.90
17033;DHT22;63208;52.178;21.016;2023-08-21T00:31:07;23.70;99.90
17033;DHT22;63208;52.178;21.016;2023-08-21T00:33:35;23.00;99.90
17033;DHT22;63208;52.178;21.016;2023-08-21T00:36:02;23.80;99.90
17033;DHT22;63208;52.178;21.016;2023-08-21T00:38:29;23.80;99.90
17033;DHT22;63208;52.178;21.016;2023-08-21T00:40:56;23.80;99.90
17033;DHT22;63208;52.178;21.016;2023-08-21T00:43:23;23.80;99.90
17033;DHT22;63208;52.178;21.016;2023-08-21T00:45:50;23.70;99.90
17033;DHT22;63208;52.178;21.016;2023-08-21T00:48:17;23.70;99.90
17033;DHT22;63208;52.178;21.016;2023-08-21T00:50:45;23.70;99.90
17033;DHT22;63208;52.178;21.016;2023-08-21T00:53:12;23.60;99.90
17033;DHT22;63208;52.178;21.016;2023-08-21T00:55:39;23.60;99.90
17033;DHT22;63208;52.178;21.016;2023-08-21T00:58:06;23.60;99.90
17033;DHT22;63208;52.178;21.016;2023-08-21T01:00:34;23.50;99.90
17033;DHT22;63208;52.178;21.016;2023-08-21T01:03:01;23.60;99.90
17033;DHT22;63208;52.178;21.016;2023-08-21T01:05:28;23.50;99.90
17033;DHT22;63208;52.178;21.016;2023-08-21T01:07:59;23.50;99.90
17033;DHT22;63208;52.178;21.016;2023-08-21T01:10:32;23.50;99.90
17033;DHT22;63208;52.178;21.016;2023-08-21T01:13:01;23.50;99.90
17033;DHT22;63208;52.178;21.016;2023-08-21T01:15:32;23.50;99.90
17033;DHT22;63208;52.178;21.016;2023-08-21T01:17:59;23.40;99.90
17033;DHT22;63208;52.178;21.016;2023-08-21T01:20:26;23.40;99.90
17033;DHT22;63208;52.178;21.016;2023-08-21T01:22:53;23.40;99.90
17033;DHT22;63208;52.178;21.016;2023-08-21T01:25:21;23.40;99.90
17033;DHT22;63208;52.178;21.016;2023-08-21T01:27:48;23.30;99.90
17033;DHT22;63208;52.178;21.016;2023-08-21T01:30:16;23.30;99.90
17033;DHT22;63208;52.178;21.016;2023-08-21T01:32:45;23.30;99.90
17033;DHT22;63208;52.178;21.016;2023-08-21T01:35:14;23.20;99.90
17033;DHT22;63208;52.178;21.016;2023-08-21T01:37:41;23.20;99.90
17033;DHT22;63208;52.178;21.016;2023-08-21T01:40:09;23.10;99.90
17033;DHT22;63208;52.178;21.016;2023-08-21T01:42:37;23.10;99.90
17033;DHT22;63208;52.178;21.016;2023-08-21T01:45:04;23.10;99.90
17033;DHT22;63208;52.178;21.016;2023-08-21T01:47:31;23.00;99.90
17033;DHT22;63208;52.178;21.016;2023-08-21T01:49:58;23.00;99.90
17033;DHT22;63208;52.178;21.016;2023-08-21T01:52:24;23.00;99.90
17033;DHT22;63208;52.178;21.016;2023-08-21T01:54:51;23.00;99.90
17033;DHT22;63208;52.178;21.016;2023-08-21T01:57:18;22.90;99.90
17033;DHT22;63208;52.178;21.016;2023-08-21T01:59:46;22.90;99.90
17033;DHT22;63208;52.178;21.016;2023-08-21T02:02:13;22.90;99.90
17033;DHT22;63208;52.178;21.016;2023-08-21T02:04:40;22.90;99.90
17033;DHT22;63208;52.178;21.016;2023-08-21T02:07:07;22.90;99.90
17033;DHT22;63208;52.178;21.016;2023-08-21T02:09:33;22.90;99.90
17033;DHT22;63208;52.178;21.016;2023-08-21T02:12:00;22.90;99.90
17033;DHT22;63208;52.178;21.016;2023-08-21T02:14:27;22.90;99.90
17033;DHT22;63208;52.178;21.016;2023-08-21T02:16:55;22.90;99.90
17033;DHT22;63208;52.178;21.016;2023-08-21T02:19:22;22.90;99.90
17033;DHT22;63208;52.178;21.016;2023-08-21T02:21:49;23.00;99.90
17033;DHT22;63208;52.178;21.016;2023-08-21T02:24:15;22.90;99.90
17033;DHT22;63208;52.178;21.016;2023-08-21T02:26:42;22.90;99.90
17033;DHT22;63208;52.178;21.016;2023-08-21T02:29:11;22.80;99.90
17033;DHT22;63208;52.178;21.016;2023-08-21T02:31:37;22.80;99.90
17033;DHT22;63208;52.178;21.016;2023-08-21T02:34:06;22.70;99.90
17033;DHT22;63208;52.178;21.016;2023-08-21T02:36:32;22.80;99.90
17033;DHT22;63208;52.178;21.016;2023-08-21T02:38:59;22.70;99.90
17033;DHT22;63208;52.178;21.016;2023-08-21T02:41:26;22.70;99.90
17033;DHT22;63208;52.178;21.016;2023-08-21T02:43:53;22.70;99.90
17033;DHT22;63208;52.178;21.016;2023-08-21T02:46:19;22.60;99.90
17033;DHT22;63208;52.178;21.016;2023-08-21T02:48:46;22.60;99.90
17033;DHT22;63208;52.178;21.016;2023-08-21T02:51:14;22.60;99.90
17033;DHT22;63208;52.178;21.016;2023-08-21T02:53:41;22.50;99.90
17033;DHT22;63208;52.178;21.016;2023-08-21T02:56:09;22.50;99.90
17033;DHT22;63208;52.178;21.016;2023-08-21T02:58:35;22.50;99.90
17033;DHT22;63208;52.178;21.016;2023-08-21T03:01:02;22.50;99.90
17033;DHT22;63208;52.178;21.016;2023-08-21T03:03:29;22.50;99.90
17033;DHT22;63208;52.178;21.016;2023-08-21T03:05:57;22.50;99.90
17033;DHT22;63208;52.178;21.016;2023-08-21T03:08:25;22.50;99.90
17033;DHT22;63208;52.178;21.016;2023-08-21T03:10:52;22.50;99.90
17033;DHT22;63208;52.178;21.016;2023-08-21T03:13:19;22.50;99.90
17033;DHT22;63208;52.178;21.016;2023-08-21T03:15:46;22.50;99.90
17033;DHT22;63208;52.178;21.016;2023-08-21T03:18:12;22.50;99.90
17033;DHT22;63208;52.178;21.016;2023-08-21T03:20:43;22.50;99.90
17033;DHT22;63208;52.178;21.016;2023-08-21T03:23:10;22.50;99.90
17033;DHT22;63208;52.178;21.016;2023-08-21T03:25:38;22.60;99.90
17033;DHT22;63208;52.178;21.016;2023-08-21T03:28:05;22.40;99.90
17033;DHT22;63208;52.178;21.016;2023-08-21T03:30:31;22.40;99.90
17033;DHT22;63208;52.178;21.016;2023-08-21T03:32:58;22.30;99.90
17033;DHT22;63208;52.178;21.016;2023-08-21T03:38:13;22.30;99.90
17033;DHT22;63208;52.178;21.016;2023-08-21T03:40:41;22.20;99.90
17033;DHT22;63208;52.178;21.016;2023-08-21T03:43:08;22.10;99.90
17033;DHT22;63208;52.178;21.016;2023-08-21T03:45:34;22.10;99.90
17033;DHT22;63208;52.178;21.016;2023-08-21T03:48:02;22.10;99.90
17033;DHT22;63208;52.178;21.016;2023-08-21T03:50:29;22.10;99.90
17033;DHT22;63208;52.178;21.016;2023-08-21T03:52:56;22.10;99.90
17033;DHT22;63208;52.178;21.016;2023-08-21T03:55:22;22.10;99.90
17033;DHT22;63208;52.178;21.016;2023-08-21T03:57:50;22.20;99.90
17033;DHT22;63208;52.178;21.016;2023-08-21T04:00:17;22.20;99.90
17033;DHT22;63208;52.178;21.016;2023-08-21T04:02:44;22.20;99.90
17033;DHT22;63208;52.178;21.016;2023-08-21T04:05:11;22.00;99.90
17033;DHT22;63208;52.178;21.016;2023-08-21T04:07:37;21.90;99.90
17033;DHT22;63208;52.178;21.016;2023-08-21T04:10:05;21.90;99.90
17033;DHT22;63208;52.178;21.016;2023-08-21T04:12:31;21.90;99.90
17033;DHT22;63208;52.178;21.016;2023-08-21T04:15:00;21.90;99.90
17033;DHT22;63208;52.178;21.016;2023-08-21T04:17:26;21.90;99.90
17033;DHT22;63208;52.178;21.016;2023-08-21T04:19:54;21.90;99.90
17033;DHT22;63208;52.178;21.016;2023-08-21T04:22:21;21.90;99.90
17033;DHT22;63208;52.178;21.016;2023-08-21T04:24:48;22.00;99.90
17033;DHT22;63208;52.178;21.016;2023-08-21T04:27:15;22.00;99.90
17033;DHT22;63208;52.178;21.016;2023-08-21T04:29:41;22.00;99.90
17033;DHT22;63208;52.178;21.016;2023-08-21T04:32:10;22.00;99.90
17033;DHT22;63208;52.178;21.016;2023-08-21T04:34:37;22.00;99.90
17033;DHT22;63208;52.178;21.016;2023-08-21T04:37:04;22.00;99.90
17033;DHT22;63208;52.178;21.016;2023-08-21T04:39:31;21.90;99.90
17033;DHT22;63208;52.178;21.016;2023-08-21T04:41:58;21.20;99.90
17033;DHT22;63208;52.178;21.016;2023-08-21T04:44:24;21.90;99.90
17033;DHT22;63208;52.178;21.016;2023-08-21T04:46:51;22.00;99.90
17033;DHT22;63208;52.178;21.016;2023-08-21T04:49:19;22.00;99.90
17033;DHT22;63208;52.178;21.016;2023-08-21T04:51:46;22.00;99.90
17033;DHT22;63208;52.178;21.016;2023-08-21T04:54:12;22.00;99.90
17033;DHT22;63208;52.178;21.016;2023-08-21T04:56:39;22.10;99.90
17033;DHT22;63208;52.178;21.016;2023-08-21T04:59:06;22.10;99.90
17033;DHT22;63208;52.178;21.016;2023-08-21T05:01:33;22.20;99.90
17033;DHT22;63208;52.178;21.016;2023-08-21T05:04:00;22.30;99.90
17033;DHT22;63208;52.178;21.016;2023-08-21T05:06:28;22.30;99.90
17033;DHT22;63208;52.178;21.016;2023-08-21T05:08:54;22.40;99.90
17033;DHT22;63208;52.178;21.016;2023-08-21T05:11:21;22.40;99.90
17033;DHT22;63208;52.178;21.016;2023-08-21T05:13:48;22.40;99.90
17033;DHT22;63208;52.178;21.016;2023-08-21T05:16:35;22.50;99.90
17033;DHT22;63208;52.178;21.016;2023-08-21T05:19:04;21.20;99.90
17033;DHT22;63208;52.178;21.016;2023-08-21T05:21:33;21.60;99.90
17033;DHT22;63208;52.178;21.016;2023-08-21T05:23:59;22.60;99.90
17033;DHT22;63208;52.178;21.016;2023-08-21T05:26:26;22.50;99.90
17033;DHT22;63208;52.178;21.016;2023-08-21T05:28:53;22.60;99.90
17033;DHT22;63208;52.178;21.016;2023-08-21T05:31:23;22.60;99.90
17033;DHT22;63208;52.178;21.016;2023-08-21T05:33:51;22.60;99.90
17033;DHT22;63208;52.178;21.016;2023-08-21T05:36:18;22.60;99.90
17033;DHT22;63208;52.178;21.016;2023-08-21T05:38:46;22.60;99.90
17033;DHT22;63208;52.178;21.016;2023-08-21T05:41:14;22.60;99.90
17033;DHT22;63208;52.178;21.016;2023-08-21T05:43:40;22.50;99.90
17033;DHT22;63208;52.178;21.016;2023-08-21T05:46:07;22.50;99.90
17033;DHT22;63208;52.178;21.016;2023-08-21T05:48:34;22.40;99.90
17033;DHT22;63208;52.178;21.016;2023-08-21T05:51:01;22.50;99.90
17033;DHT22;63208;52.178;21.016;2023-08-21T05:53:28;22.50;99.90
17033;DHT22;63208;52.178;21.016;2023-08-21T05:55:56;22.60;99.90
17033;DHT22;63208;52.178;21.016;2023-08-21T05:58:31;22.50;99.90
17033;DHT22;63208;52.178;21.016;2023-08-21T06:00:58;22.80;99.90
17033;DHT22;63208;52.178;21.016;2023-08-21T06:03:25;22.50;99.90
17033;DHT22;63208;52.178;21.016;2023-08-21T06:05:51;22.50;99.90
17033;DHT22;63208;52.178;21.016;2023-08-21T06:08:18;22.50;99.90
17033;DHT22;63208;52.178;21.016;2023-08-21T06:10:45;22.50;99.90
17033;DHT22;63208;52.178;21.016;2023-08-21T06:13:18;22.80;99.90
17033;DHT22;63208;52.178;21.016;2023-08-21T06:15:45;22.50;99.90
17033;DHT22;63208;52.178;21.016;2023-08-21T06:18:12;22.50;99.90
17033;DHT22;63208;52.178;21.016;2023-08-21T06:20:38;22.50;99.90
17033;DHT22;63208;52.178;21.016;2023-08-21T06:23:05;22.40;99.90
17033;DHT22;63208;52.178;21.016;2023-08-21T06:25:32;22.40;99.90
17033;DHT22;63208;52.178;21.016;2023-08-21T06:27:59;22.40;99.90
17033;DHT22;63208;52.178;21.016;2023-08-21T06:30:27;22.40;99.90
17033;DHT22;63208;52.178;21.016;2023-08-21T06:32:54;22.40;99.90
17033;DHT22;63208;52.178;21.016;2023-08-21T06:35:21;22.30;99.90
17033;DHT22;63208;52.178;21.016;2023-08-21T06:37:47;22.30;99.90
17033;DHT22;63208;52.178;21.016;2023-08-21T06:40:14;22.20;99.90
17033;DHT22;63208;52.178;21.016;2023-08-21T06:42:55;22.00;99.90
17033;DHT22;63208;52.178;21.016;2023-08-21T06:45:21;22.10;99.90
17033;DHT22;63208;52.178;21.016;2023-08-21T06:53:02;22.20;99.90
17033;DHT22;63208;52.178;21.016;2023-08-21T06:55:29;22.20;99.90
17033;DHT22;63208;52.178;21.016;2023-08-21T06:57:56;22.30;99.90
17033;DHT22;63208;52.178;21.016;2023-08-21T07:00:22;22.30;99.90
17033;DHT22;63208;52.178;21.016;2023-08-21T07:02:49;22.20;99.90
17033;DHT22;63208;52.178;21.016;2023-08-21T07:07:43;21.80;99.90
17033;DHT22;63208;52.178;21.016;2023-08-21T07:10:11;21.80;99.90
17033;DHT22;63208;52.178;21.016;2023-08-21T07:17:32;21.60;99.90
17033;DHT22;63208;52.178;21.016;2023-08-21T07:29:49;21.60;99.90
17033;DHT22;63208;52.178;21.016;2023-08-21T07:32:16;21.50;99.90
17033;DHT22;63208;52.178;21.016;2023-08-21T07:39:37;21.70;99.90
17033;DHT22;63208;52.178;21.016;2023-08-21T07:58:13;21.80;99.90
17033;DHT22;63208;52.178;21.016;2023-08-21T08:20:19;22.00;99.90
17033;DHT22;63208;52.178;21.016;2023-08-21T08:22:46;22.10;99.90
17033;DHT22;63208;52.178;21.016;2023-08-21T08:25:13;22.20;99.90
17033;DHT22;63208;52.178;21.016;2023-08-21T08:30:07;22.30;99.90
17033;DHT22;63208;52.178;21.016;2023-08-21T08:32:33;22.50;99.90
17033;DHT22;63208;52.178;21.016;2023-08-21T08:35:00;22.60;99.90
17033;DHT22;63208;52.178;21.016;2023-08-21T08:37:28;22.60;99.90
17033;DHT22;63208;52.178;21.016;2023-08-21T08:39:55;23.00;99.90
17033;DHT22;63208;52.178;21.016;2023-08-21T08:44:49;23.00;99.90
17033;DHT22;63208;52.178;21.016;2023-08-21T08:47:15;20.50;99.90
17033;DHT22;63208;52.178;21.016;2023-08-21T08:49:45;23.10;99.90
17033;DHT22;63208;52.178;21.016;2023-08-21T08:52:15;23.10;99.90
17033;DHT22;63208;52.178;21.016;2023-08-21T08:54:44;23.10;99.90
17033;DHT22;63208;52.178;21.016;2023-08-21T08:57:11;23.20;99.90
17033;DHT22;63208;52.178;21.016;2023-08-21T08:59:38;23.20;99.90
17033;DHT22;63208;52.178;21.016;2023-08-21T09:02:05;23.20;99.90
17033;DHT22;63208;52.178;21.016;2023-08-21T09:04:32;23.40;99.90
17033;DHT22;63208;52.178;21.016;2023-08-21T09:07:07;23.50;99.90
17033;DHT22;63208;52.178;21.016;2023-08-21T09:09:38;23.50;99.90
17033;DHT22;63208;52.178;21.016;2023-08-21T09:12:08;23.70;99.90
17033;DHT22;63208;52.178;21.016;2023-08-21T09:14:35;23.90;99.90
17033;DHT22;63208;52.178;21.016;2023-08-21T09:17:02;23.90;99.90
17033;DHT22;63208;52.178;21.016;2023-08-21T09:19:29;24.20;99.90
17033;DHT22;63208;52.178;21.016;2023-08-21T09:21:56;24.30;99.90
17033;DHT22;63208;52.178;21.016;2023-08-21T09:24:23;24.30;99.90
17033;DHT22;63208;52.178;21.016;2023-08-21T09:26:50;24.50;99.90
17033;DHT22;63208;52.178;21.016;2023-08-21T09:29:18;24.60;99.90
17033;DHT22;63208;52.178;21.016;2023-08-21T09:34:12;24.60;99.90
17033;DHT22;63208;52.178;21.016;2023-08-21T09:36:39;24.70;99.90
17033;DHT22;63208;52.178;21.016;2023-08-21T09:46:28;24.80;99.90
17033;DHT22;63208;52.178;21.016;2023-08-21T09:51:21;25.20;99.90
17033;DHT22;63208;52.178;21.016;2023-08-21T09:58:42;25.30;99.90
17033;DHT22;63208;52.178;21.016;2023-08-21T10:01:09;25.40;99.90
17033;DHT22;63208;52.178;21.016;2023-08-21T10:03:40;25.30;99.90
17033;DHT22;63208;52.178;21.016;2023-08-21T10:06:08;25.40;99.90
17033;DHT22;63208;52.178;21.016;2023-08-21T10:08:36;25.50;99.90
17033;DHT22;63208;52.178;21.016;2023-08-21T10:11:04;25.70;99.90
17033;DHT22;63208;52.178;21.016;2023-08-21T10:13:31;25.70;99.90
17033;DHT22;63208;52.178;21.016;2023-08-21T10:15:58;25.70;99.90
17033;DHT22;63208;52.178;21.016;2023-08-21T10:23:28;25.70;99.90
17033;DHT22;63208;52.178;21.016;2023-08-21T10:25:55;25.80;99.90
17033;DHT22;63208;52.178;21.016;2023-08-21T10:28:22;25.90;99.90
17033;DHT22;63208;52.178;21.016;2023-08-21T10:30:49;25.90;99.90
17033;DHT22;63208;52.178;21.016;2023-08-21T10:33:16;26.20;99.90
17033;DHT22;63208;52.178;21.016;2023-08-21T10:35:44;26.30;99.90
17033;DHT22;63208;52.178;21.016;2023-08-21T10:38:12;26.50;99.90
17033;DHT22;63208;52.178;21.016;2023-08-21T10:43:37;26.40;99.90
17033;DHT22;63208;52.178;21.016;2023-08-21T10:48:31;26.40;99.90
17033;DHT22;63208;52.178;21.016;2023-08-21T10:50:59;26.40;99.90
17033;DHT22;63208;52.178;21.016;2023-08-21T11:00:58;26.60;99.90
17033;DHT22;63208;52.178;21.016;2023-08-21T11:06:02;26.80;99.90
17033;DHT22;63208;52.178;21.016;2023-08-21T11:08:30;26.60;99.90
17033;DHT22;63208;52.178;21.016;2023-08-21T11:10:57;26.50;99.90
17033;DHT22;63208;52.178;21.016;2023-08-21T11:13:25;26.70;99.90
17033;DHT22;63208;52.178;21.016;2023-08-21T11:15:59;26.60;99.90
17033;DHT22;63208;52.178;21.016;2023-08-21T11:18:30;26.50;99.90
17033;DHT22;63208;52.178;21.016;2023-08-21T11:21:05;26.90;99.90
17033;DHT22;63208;52.178;21.016;2023-08-21T11:23:33;27.00;99.90
17033;DHT22;63208;52.178;21.016;2023-08-21T11:26:00;27.10;99.90
17033;DHT22;63208;52.178;21.016;2023-08-21T11:28:28;27.30;99.90
17033;DHT22;63208;52.178;21.016;2023-08-21T11:30:55;27.10;99.90
17033;DHT22;63208;52.178;21.016;2023-08-21T11:33:23;27.30;99.90
17033;DHT22;63208;52.178;21.016;2023-08-21T11:35:49;27.50;99.90
17033;DHT22;63208;52.178;21.016;2023-08-21T11:40:54;27.40;99.90
17033;DHT22;63208;52.178;21.016;2023-08-21T11:45:48;27.40;99.90
17033;DHT22;63208;52.178;21.016;2023-08-21T11:48:15;27.50;99.90
17033;DHT22;63208;52.178;21.016;2023-08-21T11:50:48;27.60;99.90
17033;DHT22;63208;52.178;21.016;2023-08-21T11:53:28;27.60;99.90
17033;DHT22;63208;52.178;21.016;2023-08-21T11:55:55;27.50;99.90
17033;DHT22;63208;52.178;21.016;2023-08-21T12:08:12;27.80;99.90
17033;DHT22;63208;52.178;21.016;2023-08-21T12:10:38;27.80;93.30
17033;DHT22;63208;52.178;21.016;2023-08-21T12:15:32;27.70;93.80
17033;DHT22;63208;52.178;21.016;2023-08-21T12:18:00;27.80;93.40
17033;DHT22;63208;52.178;21.016;2023-08-21T12:25:23;27.90;93.30
17033;DHT22;63208;52.178;21.016;2023-08-21T12:27:49;27.80;93.30
17033;DHT22;63208;52.178;21.016;2023-08-21T12:30:16;27.90;93.10
17033;DHT22;63208;52.178;21.016;2023-08-21T12:32:43;27.20;93.10
17033;DHT22;63208;52.178;21.016;2023-08-21T12:35:10;27.90;93.50
17033;DHT22;63208;52.178;21.016;2023-08-21T12:37:37;28.00;93.80
17033;DHT22;63208;52.178;21.016;2023-08-21T12:40:07;28.00;93.40
17033;DHT22;63208;52.178;21.016;2023-08-21T12:42:36;28.00;94.10
17033;DHT22;63208;52.178;21.016;2023-08-21T12:45:03;28.00;93.20
17033;DHT22;63208;52.178;21.016;2023-08-21T12:47:30;28.00;93.20
17033;DHT22;63208;52.178;21.016;2023-08-21T12:52:25;28.90;99.90
17033;DHT22;63208;52.178;21.016;2023-08-21T13:04:42;27.80;99.90
17033;DHT22;63208;52.178;21.016;2023-08-21T13:07:09;27.70;92.50
17033;DHT22;63208;52.178;21.016;2023-08-21T13:09:35;27.80;91.90
17033;DHT22;63208;52.178;21.016;2023-08-21T13:12:05;28.10;92.40
17033;DHT22;63208;52.178;21.016;2023-08-21T13:14:33;28.70;92.00
17033;DHT22;63208;52.178;21.016;2023-08-21T13:26:50;29.30;85.80
17033;DHT22;63208;52.178;21.016;2023-08-21T13:32:09;28.80;88.30
17033;DHT22;63208;52.178;21.016;2023-08-21T13:37:04;28.80;88.20
17033;DHT22;63208;52.178;21.016;2023-08-21T13:51:47;29.90;99.90
17033;DHT22;63208;52.178;21.016;2023-08-21T13:54:14;30.90;91.50
17033;DHT22;63208;52.178;21.016;2023-08-21T13:56:40;30.80;84.20
17033;DHT22;63208;52.178;21.016;2023-08-21T13:59:07;30.80;83.50
17033;DHT22;63208;52.178;21.016;2023-08-21T14:01:34;30.30;85.10
17033;DHT22;63208;52.178;21.016;2023-08-21T14:06:45;30.40;84.00
17033;DHT22;63208;52.178;21.016;2023-08-21T14:09:13;30.40;83.80
17033;DHT22;63208;52.178;21.016;2023-08-21T14:11:40;30.40;84.50
17033;DHT22;63208;52.178;21.016;2023-08-21T14:17:11;31.20;83.90
17033;DHT22;63208;52.178;21.016;2023-08-21T14:19:44;30.30;81.10
17033;DHT22;63208;52.178;21.016;2023-08-21T14:24:39;28.70;86.00
17033;DHT22;63208;52.178;21.016;2023-08-21T14:29:42;28.40;88.00
17033;DHT22;63208;52.178;21.016;2023-08-21T14:46:53;28.10;87.30
17033;DHT22;63208;52.178;21.016;2023-08-21T14:49:20;27.90;87.30
17033;DHT22;63208;52.178;21.016;2023-08-21T14:51:47;27.90;88.70
17033;DHT22;63208;52.178;21.016;2023-08-21T14:54:14;28.00;88.90
17033;DHT22;63208;52.178;21.016;2023-08-21T15:02:48;27.90;88.70
17033;DHT22;63208;52.178;21.016;2023-08-21T15:05:15;27.80;89.20
17033;DHT22;63208;52.178;21.016;2023-08-21T15:07:42;27.70;89.50
17033;DHT22;63208;52.178;21.016;2023-08-21T15:12:36;27.80;90.40
17033;DHT22;63208;52.178;21.016;2023-08-21T15:15:03;27.80;90.10
17033;DHT22;63208;52.178;21.016;2023-08-21T15:17:30;27.80;95.50
17033;DHT22;63208;52.178;21.016;2023-08-21T15:19:58;27.70;90.90
17033;DHT22;63208;52.178;21.016;2023-08-21T15:22:25;27.70;91.60
17033;DHT22;63208;52.178;21.016;2023-08-21T15:24:52;27.70;90.80
17033;DHT22;63208;52.178;21.016;2023-08-21T15:27:18;27.70;90.80
17033;DHT22;63208;52.178;21.016;2023-08-21T15:32:12;27.60;90.80
17033;DHT22;63208;52.178;21.016;2023-08-21T15:34:39;27.60;91.60
17033;DHT22;63208;52.178;21.016;2023-08-21T15:37:07;27.50;91.70
17033;DHT22;63208;52.178;21.016;2023-08-21T15:39:40;28.40;92.00
17033;DHT22;63208;52.178;21.016;2023-08-21T15:44:36;27.30;99.90
17033;DHT22;63208;52.178;21.016;2023-08-21T15:49:31;27.20;92.20
17033;DHT22;63208;52.178;21.016;2023-08-21T15:54:31;27.20;99.90
17033;DHT22;63208;52.178;21.016;2023-08-21T15:56:58;27.10;99.00
17033;DHT22;63208;52.178;21.016;2023-08-21T16:04:19;27.00;92.40
17033;DHT22;63208;52.178;21.016;2023-08-21T16:06:46;27.10;93.00
17033;DHT22;63208;52.178;21.016;2023-08-21T16:09:13;27.00;93.00
17033;DHT22;63208;52.178;21.016;2023-08-21T16:11:41;27.00;96.50
17033;DHT22;63208;52.178;21.016;2023-08-21T16:14:08;26.90;92.90
17033;DHT22;63208;52.178;21.016;2023-08-21T16:31:18;26.70;92.90
17033;DHT22;63208;52.178;21.016;2023-08-21T16:33:45;26.80;93.70
17033;DHT22;63208;52.178;21.016;2023-08-21T16:36:15;26.60;94.00
17033;DHT22;63208;52.178;21.016;2023-08-21T16:38:42;26.70;93.90
17033;DHT22;63208;52.178;21.016;2023-08-21T16:41:08;26.60;94.30
17033;DHT22;63208;52.178;21.016;2023-08-21T17:07:26;26.40;95.20
17033;DHT22;63208;52.178;21.016;2023-08-21T17:09:52;26.30;96.20
17033;DHT22;63208;52.178;21.016;2023-08-21T17:12:19;26.30;96.40
17033;DHT22;63208;52.178;21.016;2023-08-21T17:14:46;26.20;96.20
17033;DHT22;63208;52.178;21.016;2023-08-21T17:17:13;26.20;96.80
17033;DHT22;63208;52.178;21.016;2023-08-21T17:19:40;26.10;96.60
17033;DHT22;63208;52.178;21.016;2023-08-21T17:22:06;26.10;96.60
17033;DHT22;63208;52.178;21.016;2023-08-21T17:24:35;26.10;96.70
17033;DHT22;63208;52.178;21.016;2023-08-21T17:27:01;24.60;96.20
17033;DHT22;63208;52.178;21.016;2023-08-21T17:29:29;26.00;96.80
17033;DHT22;63208;52.178;21.016;2023-08-21T17:31:55;26.00;97.20
17033;DHT22;63208;52.178;21.016;2023-08-21T17:34:22;26.00;97.00
17033;DHT22;63208;52.178;21.016;2023-08-21T17:36:49;26.00;97.40
17033;DHT22;63208;52.178;21.016;2023-08-21T17:39:17;25.90;97.40
17033;DHT22;63208;52.178;21.016;2023-08-21T17:41:45;25.90;97.50
17033;DHT22;63208;52.178;21.016;2023-08-21T17:44:12;25.90;97.60
17033;DHT22;63208;52.178;21.016;2023-08-21T17:46:38;25.80;97.80
17033;DHT22;63208;52.178;21.016;2023-08-21T17:49:08;25.80;97.60
17033;DHT22;63208;52.178;21.016;2023-08-21T17:54:17;25.80;98.40
17033;DHT22;63208;52.178;21.016;2023-08-21T17:56:45;25.70;98.30
17033;DHT22;63208;52.178;21.016;2023-08-21T17:59:15;25.70;98.40
17033;DHT22;63208;52.178;21.016;2023-08-21T18:01:44;27.70;99.50
17033;DHT22;63208;52.178;21.016;2023-08-21T18:04:11;25.60;98.80
17033;DHT22;63208;52.178;21.016;2023-08-21T18:06:38;25.60;99.00
17033;DHT22;63208;52.178;21.016;2023-08-21T18:09:04;25.60;99.30
17033;DHT22;63208;52.178;21.016;2023-08-21T18:14:44;25.50;99.70
17033;DHT22;63208;52.178;21.016;2023-08-21T18:20:44;25.50;99.90
17033;DHT22;63208;52.178;21.016;2023-08-21T18:23:11;25.70;99.90
17033;DHT22;63208;52.178;21.016;2023-08-21T18:25:38;25.40;99.90
17033;DHT22;63208;52.178;21.016;2023-08-21T18:28:05;25.40;99.90
17033;DHT22;63208;52.178;21.016;2023-08-21T18:30:34;25.30;99.90
17033;DHT22;63208;52.178;21.016;2023-08-21T18:33:01;25.30;99.90
17033;DHT22;63208;52.178;21.016;2023-08-21T18:35:28;25.30;99.90
17033;DHT22;63208;52.178;21.016;2023-08-21T18:37:55;25.20;99.90
17033;DHT22;63208;52.178;21.016;2023-08-21T18:40:22;22.90;99.90
17033;DHT22;63208;52.178;21.016;2023-08-21T18:42:48;25.20;99.90
17033;DHT22;63208;52.178;21.016;2023-08-21T18:45:15;25.20;99.90
17033;DHT22;63208;52.178;21.016;2023-08-21T18:47:43;25.20;99.90
17033;DHT22;63208;52.178;21.016;2023-08-21T18:50:10;25.20;99.90
17033;DHT22;63208;52.178;21.016;2023-08-21T18:52:37;25.20;99.90
17033;DHT22;63208;52.178;21.016;2023-08-21T18:55:04;25.20;99.90
17033;DHT22;63208;52.178;21.016;2023-08-21T18:57:31;25.20;99.90
17033;DHT22;63208;52.178;21.016;2023-08-21T18:59:58;25.10;99.90
17033;DHT22;63208;52.178;21.016;2023-08-21T19:02:25;25.10;99.90
17033;DHT22;63208;52.178;21.016;2023-08-21T19:04:53;25.00;99.90
17033;DHT22;63208;52.178;21.016;2023-08-21T19:07:19;25.00;99.90
17033;DHT22;63208;52.178;21.016;2023-08-21T19:09:46;25.00;99.90
17033;DHT22;63208;52.178;21.016;2023-08-21T19:12:16;25.00;99.90
17033;DHT22;63208;52.178;21.016;2023-08-21T19:14:43;24.90;99.90
17033;DHT22;63208;52.178;21.016;2023-08-21T19:17:09;24.90;99.90
17033;DHT22;63208;52.178;21.016;2023-08-21T19:19:36;24.90;99.90
17033;DHT22;63208;52.178;21.016;2023-08-21T19:22:04;24.90;99.90
17033;DHT22;63208;52.178;21.016;2023-08-21T19:24:31;24.90;99.90
17033;DHT22;63208;52.178;21.016;2023-08-21T19:26:58;24.90;99.90
17033;DHT22;63208;52.178;21.016;2023-08-21T19:29:25;24.90;99.90
17033;DHT22;63208;52.178;21.016;2023-08-21T19:31:52;24.90;99.90
17033;DHT22;63208;52.178;21.016;2023-08-21T19:34:18;24.80;99.90
17033;DHT22;63208;52.178;21.016;2023-08-21T19:36:47;24.80;99.90
17033;DHT22;63208;52.178;21.016;2023-08-21T19:39:15;24.80;99.90
17033;DHT22;63208;52.178;21.016;2023-08-21T19:41:41;24.70;99.90
17033;DHT22;63208;52.178;21.016;2023-08-21T19:44:08;24.70;99.90